Time;durP1;ratioP1;P1;durP2;ratioP2;P2;SDS_P1;SDS_P2;PMS_P1;PMS_P2;Temp;Humidity;BMP_temperature;BMP_pressure;BME280_temperature;BME280_humidity;BME280_pressure;Samples;Min_cycle;Max_cycle;Signal;HPM_P1;HPM_P2
2021/12/26 00:01:21;;;;;;;;;;;-5.20;99.90;;;;;;5092764;28;19942;-48
2021/12/26 00:03:47;;;;;;;;;;;-5.20;99.90;;;;;;5092633;28;19923;-47
2021/12/26 00:06:15;;;;;;;;;;;-5.20;99.90;;;;;;5092723;28;19985;-47
2021/12/26 00:08:41;;;;;;;;;;;-5.20;99.90;;;;;;5092441;28;20011;-46
2021/12/26 00:11:07;;;;;;;;;;;-5.20;99.90;;;;;;5092525;28;19920;-48
2021/12/26 00:13:33;;;;;;;;;;;-5.30;99.90;;;;;;5092523;28;19961;-46
2021/12/26 00:15:59;;;;;;;;;;;-5.20;99.90;;;;;;5092106;28;19920;-49
2021/12/26 00:18:24;;;;;;;;;;;-5.30;99.90;;;;;;5092291;28;20349;-46
2021/12/26 00:20:50;;;;;;;;;;;-5.30;99.90;;;;;;5092501;28;19916;-47
2021/12/26 00:23:16;;;;;;;;;;;-5.30;99.90;;;;;;5092586;28;19916;-46
2021/12/26 00:25:42;;;;;;;;;;;-5.30;99.90;;;;;;5092144;28;19920;-48
2021/12/26 00:28:08;;;;;;;;;;;-5.40;99.90;;;;;;5092369;28;19974;-46
2021/12/26 00:30:34;;;;;;;;;;;-5.40;99.90;;;;;;5092298;28;19959;-47
2021/12/26 00:32:59;;;;;;;;;;;-5.30;99.90;;;;;;5092415;28;19989;-47
2021/12/26 00:35:26;;;;;;;;;;;-5.30;99.90;;;;;;5092513;28;19916;-46
2021/12/26 00:37:51;;;;;;;;;;;-5.30;99.90;;;;;;5092356;28;19916;-47
2021/12/26 00:40:19;;;;;;;;;;;-5.30;99.90;;;;;;5092148;28;20026;-48
2021/12/26 00:42:45;;;;;;;;;;;-5.20;99.90;;;;;;5092304;28;19927;-46
2021/12/26 00:45:10;;;;;;;;;;;-5.20;99.90;;;;;;5091252;28;19920;-49
2021/12/26 00:47:36;;;;;;;;;;;-5.20;99.90;;;;;;5092216;28;19970;-48
2021/12/26 00:50:03;;;;;;;;;;;-5.10;99.90;;;;;;5092039;28;19946;-47
2021/12/26 00:52:29;;;;;;;;;;;-5.00;99.90;;;;;;5092593;28;20668;-46
2021/12/26 00:54:54;;;;;;;;;;;-5.00;99.90;;;;;;5091978;28;19916;-47
2021/12/26 00:57:20;;;;;;;;;;;-5.00;99.90;;;;;;5092015;28;19919;-46
2021/12/26 00:59:48;;;;;;;;;;;-4.90;99.90;;;;;;5092302;28;19920;-47
2021/12/26 01:02:13;;;;;;;;;;;-4.90;99.90;;;;;;5094805;28;19920;-48
2021/12/26 01:04:39;;;;;;;;;;;-4.90;99.90;;;;;;5095631;28;20417;-47
2021/12/26 01:07:17;;;;;;;;;;;-4.90;99.90;;;;;;5095930;28;19916;-46
2021/12/26 01:09:46;;;;;;;;;;;-4.90;99.90;;;;;;5095408;28;20022;-49
2021/12/26 01:12:15;;;;;;;;;;;-4.90;99.90;;;;;;5095631;28;19916;-47
2021/12/26 01:14:47;;;;;;;;;;;-4.90;99.90;;;;;;5095585;28;19963;-48
2021/12/26 01:17:16;;;;;;;;;;;-4.90;99.90;;;;;;5095717;28;19916;-47
2021/12/26 01:19:49;;;;;;;;;;;-5.00;99.90;;;;;;5095373;28;19977;-47
2021/12/26 01:22:15;;;;;;;;;;;-5.10;99.90;;;;;;5095410;28;19920;-47
2021/12/26 01:24:42;;;;;;;;;;;-5.00;99.90;;;;;;5095461;28;19920;-46
2021/12/26 01:27:08;;;;;;;;;;;-5.00;99.90;;;;;;5095527;28;19916;-47
2021/12/26 01:29:34;;;;;;;;;;;-5.10;99.90;;;;;;5095199;28;20400;-47
2021/12/26 01:32:00;;;;;;;;;;;-5.00;99.90;;;;;;5095339;28;20318;-46
2021/12/26 01:34:25;;;;;;;;;;;-5.00;99.90;;;;;;5095211;28;20034;-47
2021/12/26 01:36:51;;;;;;;;;;;-5.00;99.90;;;;;;5095092;28;19923;-46
2021/12/26 01:39:17;;;;;;;;;;;-5.00;99.90;;;;;;5094992;28;19963;-46
2021/12/26 01:41:44;;;;;;;;;;;-5.00;99.90;;;;;;5095119;28;19990;-47
2021/12/26 01:44:12;;;;;;;;;;;-5.00;99.90;;;;;;5095064;28;19916;-47
2021/12/26 01:46:38;;;;;;;;;;;-5.00;99.90;;;;;;5094870;28;19916;-47
2021/12/26 01:49:14;;;;;;;;;;;-5.00;99.90;;;;;;5094647;28;20377;-46
2021/12/26 01:51:41;;;;;;;;;;;-5.10;99.90;;;;;;5094992;28;20349;-50
2021/12/26 01:54:09;;;;;;;;;;;-5.10;99.90;;;;;;5095171;28;19916;-47
2021/12/26 01:56:36;;;;;;;;;;;-5.10;99.90;;;;;;5094967;28;19916;-47
2021/12/26 01:59:02;;;;;;;;;;;-5.20;99.90;;;;;;5094746;28;19923;-49
2021/12/26 02:01:28;;;;;;;;;;;-5.20;99.90;;;;;;5094665;28;19920;-49
2021/12/26 02:03:54;;;;;;;;;;;-5.20;99.90;;;;;;5094771;28;20728;-47
2021/12/26 02:06:21;;;;;;;;;;;-5.20;99.90;;;;;;5094777;28;19922;-47
2021/12/26 02:08:47;;;;;;;;;;;-5.30;99.90;;;;;;5094432;28;19920;-46
2021/12/26 02:11:12;;;;;;;;;;;-5.30;99.90;;;;;;5094512;28;19920;-47
2021/12/26 02:13:38;;;;;;;;;;;-5.30;99.90;;;;;;5093739;28;20311;-47
2021/12/26 02:16:04;;;;;;;;;;;-5.30;99.90;;;;;;5094396;28;19941;-48
2021/12/26 02:18:30;;;;;;;;;;;-5.30;99.90;;;;;;5094412;28;19916;-48
2021/12/26 02:23:45;;;;;;;;;;;-5.40;99.90;;;;;;5094141;28;19920;-46
2021/12/26 02:28:37;;;;;;;;;;;-5.40;99.90;;;;;;5093863;28;20358;-46
2021/12/26 02:31:03;;;;;;;;;;;-5.40;99.90;;;;;;5093927;28;20011;-47
2021/12/26 02:33:28;;;;;;;;;;;-5.40;99.90;;;;;;5094116;28;20417;-46
2021/12/26 02:35:54;;;;;;;;;;;-5.40;99.90;;;;;;5094236;28;19916;-47
2021/12/26 02:38:20;;;;;;;;;;;-5.50;99.90;;;;;;5093714;28;19916;-46
2021/12/26 02:40:47;;;;;;;;;;;-5.40;99.90;;;;;;5093817;28;19938;-46
2021/12/26 02:43:15;;;;;;;;;;;-5.40;99.90;;;;;;5093628;28;20382;-49
2021/12/26 02:45:41;;;;;;;;;;;-5.40;99.90;;;;;;5093672;28;19916;-48
2021/12/26 02:48:07;;;;;;;;;;;-5.40;99.90;;;;;;5093778;28;19916;-46
2021/12/26 02:50:33;;;;;;;;;;;-5.50;99.90;;;;;;5093722;28;19959;-45
2021/12/26 02:53:00;;;;;;;;;;;-5.50;99.90;;;;;;5093441;28;20012;-46
2021/12/26 02:55:26;;;;;;;;;;;-5.50;99.90;;;;;;5093568;28;19923;-47
2021/12/26 02:57:53;;;;;;;;;;;-5.50;99.90;;;;;;5093595;28;19916;-49
2021/12/26 03:00:20;;;;;;;;;;;-5.50;99.90;;;;;;5093767;28;19959;-47
2021/12/26 03:02:48;;;;;;;;;;;-5.60;99.90;;;;;;5093659;28;19939;-47
2021/12/26 03:05:14;;;;;;;;;;;-5.50;99.90;;;;;;5093379;28;19919;-46
2021/12/26 03:07:40;;;;;;;;;;;-5.50;99.90;;;;;;5093358;28;20366;-45
2021/12/26 03:10:07;;;;;;;;;;;-5.60;99.90;;;;;;5093347;28;19966;-48
2021/12/26 03:12:33;;;;;;;;;;;-5.60;99.90;;;;;;5093138;28;20413;-46
2021/12/26 03:15:00;;;;;;;;;;;-5.60;99.90;;;;;;5093492;28;20003;-48
2021/12/26 03:17:25;;;;;;;;;;;-5.60;99.90;;;;;;5093296;28;20027;-50
2021/12/26 03:19:51;;;;;;;;;;;-5.60;99.90;;;;;;5093492;28;20413;-49
2021/12/26 03:22:18;;;;;;;;;;;-5.60;99.90;;;;;;5093159;28;19963;-48
2021/12/26 03:24:44;;;;;;;;;;;-5.60;99.90;;;;;;5092137;28;19949;-46
2021/12/26 03:27:10;;;;;;;;;;;-5.60;99.90;;;;;;5093007;28;19916;-48
2021/12/26 03:29:35;;;;;;;;;;;-5.60;99.90;;;;;;5092978;28;19973;-47
2021/12/26 03:32:01;;;;;;;;;;;-5.60;99.90;;;;;;5093018;28;19916;-45
2021/12/26 03:34:27;;;;;;;;;;;-5.70;99.90;;;;;;5092785;28;20385;-46
2021/12/26 03:36:53;;;;;;;;;;;-5.70;99.90;;;;;;5092883;28;19923;-46
2021/12/26 03:39:19;;;;;;;;;;;-5.70;99.90;;;;;;5092854;28;19969;-46
2021/12/26 03:41:45;;;;;;;;;;;-5.70;99.90;;;;;;5092740;28;19916;-46
2021/12/26 03:44:11;;;;;;;;;;;-5.70;99.90;;;;;;5092716;28;19969;-46
2021/12/26 03:46:36;;;;;;;;;;;-5.80;99.90;;;;;;5092978;28;19923;-45
2021/12/26 03:49:05;;;;;;;;;;;-5.70;99.90;;;;;;5092650;28;19924;-48
2021/12/26 03:51:32;;;;;;;;;;;-5.80;99.90;;;;;;5092683;28;19916;-47
2021/12/26 03:53:58;;;;;;;;;;;-5.70;99.90;;;;;;5092550;28;19969;-46
2021/12/26 03:56:24;;;;;;;;;;;-5.80;99.90;;;;;;5092486;28;20275;-47
2021/12/26 03:58:49;;;;;;;;;;;-5.80;99.90;;;;;;5092617;28;19923;-46
2021/12/26 04:01:15;;;;;;;;;;;-5.80;99.90;;;;;;5092645;28;20040;-47
2021/12/26 04:03:40;;;;;;;;;;;-5.80;99.90;;;;;;5092442;28;19915;-46
2021/12/26 04:06:06;;;;;;;;;;;-5.90;99.90;;;;;;5092431;28;19942;-46
2021/12/26 04:08:32;;;;;;;;;;;-5.80;99.90;;;;;;5092434;28;19920;-47
2021/12/26 04:10:57;;;;;;;;;;;-5.80;99.90;;;;;;5092613;28;19919;-48
2021/12/26 04:13:23;;;;;;;;;;;-5.80;99.90;;;;;;5092897;28;19920;-47
2021/12/26 04:15:48;;;;;;;;;;;-5.80;99.90;;;;;;5092575;28;20430;-47
2021/12/26 04:18:14;;;;;;;;;;;-5.80;99.90;;;;;;5092605;28;20003;-46
2021/12/26 04:20:40;;;;;;;;;;;-5.70;99.90;;;;;;5092406;28;19969;-46
2021/12/26 04:23:05;;;;;;;;;;;-5.80;99.90;;;;;;5092136;28;19920;-46
2021/12/26 04:25:31;;;;;;;;;;;-5.70;99.90;;;;;;5092272;28;19920;-46
2021/12/26 04:27:56;;;;;;;;;;;-5.80;99.90;;;;;;5092497;28;19920;-46
2021/12/26 04:30:23;;;;;;;;;;;-5.80;99.90;;;;;;5092308;28;19981;-46
2021/12/26 04:32:48;;;;;;;;;;;-5.70;99.90;;;;;;5092441;28;19919;-46
2021/12/26 04:35:15;;;;;;;;;;;-5.80;99.90;;;;;;5092300;28;19927;-46
2021/12/26 04:37:40;;;;;;;;;;;-5.80;99.90;;;;;;5095843;28;20006;-47
2021/12/26 04:40:07;;;;;;;;;;;-5.80;99.90;;;;;;5096002;28;20007;-47
2021/12/26 04:42:33;;;;;;;;;;;-5.90;99.90;;;;;;5096161;28;19957;-46
2021/12/26 04:44:59;;;;;;;;;;;-5.90;99.90;;;;;;5096194;28;19916;-46
2021/12/26 04:47:24;;;;;;;;;;;-5.90;99.90;;;;;;5096203;28;19916;-46
2021/12/26 04:49:50;;;;;;;;;;;-5.90;99.90;;;;;;5095985;28;19919;-47
2021/12/26 04:52:15;;;;;;;;;;;-5.90;99.90;;;;;;5096145;28;19973;-48
2021/12/26 04:54:41;;;;;;;;;;;-5.90;99.90;;;;;;5095951;28;19916;-46
2021/12/26 04:57:07;;;;;;;;;;;-6.00;99.90;;;;;;5095730;28;19916;-46
2021/12/26 04:59:32;;;;;;;;;;;-6.00;99.90;;;;;;5095643;28;19923;-46
2021/12/26 05:01:58;;;;;;;;;;;-5.90;99.90;;;;;;5095640;28;20010;-47
2021/12/26 05:04:24;;;;;;;;;;;-6.00;99.90;;;;;;5095666;28;19927;-46
2021/12/26 05:06:49;;;;;;;;;;;-6.00;99.90;;;;;;5095776;28;19923;-47
2021/12/26 05:09:15;;;;;;;;;;;-6.00;99.90;;;;;;5095623;28;19927;-47
2021/12/26 05:11:40;;;;;;;;;;;-6.00;99.90;;;;;;5095429;28;19916;-47
2021/12/26 05:14:06;;;;;;;;;;;-6.00;99.90;;;;;;5095818;28;19916;-46
2021/12/26 05:16:32;;;;;;;;;;;-6.00;99.90;;;;;;5095312;28;19959;-47
2021/12/26 05:18:57;;;;;;;;;;;-6.00;99.90;;;;;;5095534;28;19950;-46
2021/12/26 05:21:23;;;;;;;;;;;-5.90;99.90;;;;;;5095348;28;20049;-46
2021/12/26 05:23:48;;;;;;;;;;;-6.00;99.90;;;;;;5094798;28;20425;-47
2021/12/26 05:26:14;;;;;;;;;;;-6.00;99.90;;;;;;5095230;28;19998;-46
2021/12/26 05:28:40;;;;;;;;;;;-6.00;99.90;;;;;;5094069;28;19931;-49
2021/12/26 05:31:05;;;;;;;;;;;-6.00;99.90;;;;;;5095253;28;19923;-47
2021/12/26 05:33:31;;;;;;;;;;;-6.00;99.90;;;;;;5095068;28;19999;-47
2021/12/26 05:35:56;;;;;;;;;;;-6.00;99.90;;;;;;5094913;28;19970;-46
2021/12/26 05:38:22;;;;;;;;;;;-6.00;99.90;;;;;;5094873;28;19916;-47
2021/12/26 05:40:47;;;;;;;;;;;-6.00;99.90;;;;;;5095034;28;19923;-47
2021/12/26 05:43:13;;;;;;;;;;;-6.10;99.90;;;;;;5095138;28;19919;-47
2021/12/26 05:45:39;;;;;;;;;;;-6.10;99.90;;;;;;5095022;28;20345;-46
2021/12/26 05:48:04;;;;;;;;;;;-6.10;99.90;;;;;;5093910;28;19951;-46
2021/12/26 05:50:30;;;;;;;;;;;-6.10;99.90;;;;;;5094899;28;19939;-47
2021/12/26 05:52:55;;;;;;;;;;;-6.00;99.90;;;;;;5094850;28;19916;-47
2021/12/26 05:55:21;;;;;;;;;;;-6.10;99.90;;;;;;5094978;28;19965;-46
2021/12/26 05:57:46;;;;;;;;;;;-6.10;99.90;;;;;;5094822;28;19959;-47
2021/12/26 06:00:14;;;;;;;;;;;-6.10;99.90;;;;;;5094805;28;19916;-48
2021/12/26 06:02:39;;;;;;;;;;;-6.10;99.90;;;;;;5094646;28;20342;-47
2021/12/26 06:05:05;;;;;;;;;;;-6.10;99.90;;;;;;5094590;28;20007;-46
2021/12/26 06:07:31;;;;;;;;;;;-6.10;99.90;;;;;;5094583;28;19926;-49
2021/12/26 06:09:56;;;;;;;;;;;-6.10;99.90;;;;;;5094486;28;20027;-47
2021/12/26 06:12:22;;;;;;;;;;;-6.10;99.90;;;;;;5094631;28;19923;-47
2021/12/26 06:14:48;;;;;;;;;;;-6.10;99.90;;;;;;5094441;28;19927;-47
2021/12/26 06:17:14;;;;;;;;;;;-6.10;99.90;;;;;;5094364;28;19926;-45
2021/12/26 06:19:39;;;;;;;;;;;-6.10;99.90;;;;;;5094243;28;19915;-46
2021/12/26 06:22:06;;;;;;;;;;;-6.10;99.90;;;;;;5094182;28;19965;-47
2021/12/26 06:24:32;;;;;;;;;;;-6.10;99.90;;;;;;5094040;28;19920;-47
2021/12/26 06:26:57;;;;;;;;;;;-6.20;99.90;;;;;;5094353;28;19915;-46
2021/12/26 06:29:23;;;;;;;;;;;-6.20;99.90;;;;;;5093954;28;19946;-48
2021/12/26 06:31:49;;;;;;;;;;;-6.20;99.90;;;;;;5094052;28;19916;-46
2021/12/26 06:34:14;;;;;;;;;;;-6.20;99.90;;;;;;5094241;28;19922;-46
2021/12/26 06:36:40;;;;;;;;;;;-6.10;99.90;;;;;;5093983;28;19916;-48
2021/12/26 06:39:05;;;;;;;;;;;-6.20;99.90;;;;;;5093794;28;19959;-46
2021/12/26 06:41:31;;;;;;;;;;;-6.10;99.90;;;;;;5093988;28;19916;-46
2021/12/26 06:43:57;;;;;;;;;;;-6.10;99.90;;;;;;5093735;28;19923;-45
2021/12/26 06:46:22;;;;;;;;;;;-6.20;99.90;;;;;;5093952;28;19915;-49
2021/12/26 06:48:48;;;;;;;;;;;-6.20;99.90;;;;;;5093800;28;19928;-46
2021/12/26 06:51:14;;;;;;;;;;;-6.20;99.90;;;;;;5093745;28;19967;-46
2021/12/26 06:53:39;;;;;;;;;;;-6.20;99.90;;;;;;5093359;28;20002;-46
2021/12/26 06:56:05;;;;;;;;;;;-6.20;99.90;;;;;;5093827;28;19998;-46
2021/12/26 06:58:31;;;;;;;;;;;-6.10;99.90;;;;;;5093616;28;19923;-46
2021/12/26 07:00:57;;;;;;;;;;;-6.10;99.90;;;;;;5093506;28;20261;-46
2021/12/26 07:03:22;;;;;;;;;;;-6.20;99.90;;;;;;5093497;28;20003;-46
2021/12/26 07:05:48;;;;;;;;;;;-6.20;99.90;;;;;;5093452;28;20289;-47
2021/12/26 07:08:13;;;;;;;;;;;-6.10;99.90;;;;;;5093383;28;20403;-46
2021/12/26 07:10:39;;;;;;;;;;;-6.10;99.90;;;;;;5093490;28;19916;-46
2021/12/26 07:13:04;;;;;;;;;;;-6.10;99.90;;;;;;5093216;28;19998;-46
2021/12/26 07:15:30;;;;;;;;;;;-6.10;99.90;;;;;;5093170;28;19970;-46
2021/12/26 07:17:56;;;;;;;;;;;-6.10;99.90;;;;;;5093257;28;19919;-45
2021/12/26 07:20:21;;;;;;;;;;;-6.10;99.90;;;;;;5093202;28;19938;-45
2021/12/26 07:22:47;;;;;;;;;;;-6.10;99.90;;;;;;5093167;28;19961;-48
2021/12/26 07:25:13;;;;;;;;;;;-6.10;99.90;;;;;;5093129;28;19927;-48
2021/12/26 07:27:39;;;;;;;;;;;-6.10;99.90;;;;;;5109318;28;20038;-45
2021/12/26 07:30:06;;;;;;;;;;;-6.10;99.90;;;;;;5093140;28;19920;-47
2021/12/26 07:32:32;;;;;;;;;;;-6.10;99.90;;;;;;5092912;28;19916;-46
2021/12/26 07:34:58;;;;;;;;;;;-6.10;99.90;;;;;;5092656;28;19981;-47
2021/12/26 07:37:24;;;;;;;;;;;-6.10;99.90;;;;;;5092767;28;20563;-48
2021/12/26 07:39:49;;;;;;;;;;;-6.10;99.90;;;;;;5093019;28;19950;-47
2021/12/26 07:42:15;;;;;;;;;;;-6.10;99.90;;;;;;5092688;28;20358;-46
2021/12/26 07:44:40;;;;;;;;;;;-6.10;99.90;;;;;;5092925;28;19922;-46
2021/12/26 07:47:06;;;;;;;;;;;-6.00;99.90;;;;;;5092782;28;19920;-45
2021/12/26 07:49:32;;;;;;;;;;;-6.00;99.90;;;;;;5092639;28;20320;-51
2021/12/26 07:51:58;;;;;;;;;;;-6.00;99.90;;;;;;5092691;28;19954;-47
2021/12/26 07:54:24;;;;;;;;;;;-6.00;99.90;;;;;;5092946;28;19920;-46
2021/12/26 07:56:50;;;;;;;;;;;-6.00;99.90;;;;;;5092540;28;20365;-46
2021/12/26 07:59:16;;;;;;;;;;;-6.10;99.90;;;;;;5108372;28;19999;-47
2021/12/26 08:01:42;;;;;;;;;;;-6.00;99.90;;;;;;5092720;28;20334;-46
2021/12/26 08:04:09;;;;;;;;;;;-6.00;99.90;;;;;;5092592;28;19923;-49
2021/12/26 08:06:34;;;;;;;;;;;-6.00;99.90;;;;;;5092530;28;20014;-46
2021/12/26 08:09:00;;;;;;;;;;;-6.00;99.90;;;;;;5092802;28;20015;-46
2021/12/26 08:11:26;;;;;;;;;;;-5.90;99.90;;;;;;5093996;28;19923;-47
2021/12/26 08:13:51;;;;;;;;;;;-6.00;99.90;;;;;;5096958;28;20042;-47
2021/12/26 08:16:18;;;;;;;;;;;-6.00;99.90;;;;;;5096680;28;20709;-46
2021/12/26 08:18:44;;;;;;;;;;;-6.00;99.90;;;;;;5096682;28;20011;-45
2021/12/26 08:21:09;;;;;;;;;;;-6.00;99.90;;;;;;5096644;28;20384;-46
2021/12/26 08:23:35;;;;;;;;;;;-5.90;99.90;;;;;;5096604;28;19923;-46
2021/12/26 08:26:02;;;;;;;;;;;-5.90;99.90;;;;;;5096305;28;20022;-46
2021/12/26 08:28:27;;;;;;;;;;;-5.90;99.90;;;;;;5096412;28;19939;-45
2021/12/26 08:30:53;;;;;;;;;;;-5.80;99.90;;;;;;5096463;28;20345;-45
2021/12/26 08:33:18;;;;;;;;;;;-5.80;99.90;;;;;;5096295;28;19916;-46
2021/12/26 08:35:45;;;;;;;;;;;-5.80;99.90;;;;;;5096218;28;19967;-46
2021/12/26 08:38:11;;;;;;;;;;;-5.70;99.90;;;;;;5096472;28;20281;-45
2021/12/26 08:40:37;;;;;;;;;;;-5.70;99.90;;;;;;5096120;28;20430;-45
2021/12/26 08:43:02;;;;;;;;;;;-5.70;99.90;;;;;;5096078;28;20016;-45
2021/12/26 08:45:28;;;;;;;;;;;-5.60;99.90;;;;;;5096141;28;19960;-46
2021/12/26 08:47:55;;;;;;;;;;;-5.50;99.90;;;;;;5096165;28;19919;-45
2021/12/26 08:50:21;;;;;;;;;;;-5.50;99.90;;;;;;5095937;28;19920;-47
2021/12/26 08:52:47;;;;;;;;;;;-5.50;99.90;;;;;;5096298;28;19916;-45
2021/12/26 08:55:12;;;;;;;;;;;-5.40;99.90;;;;;;5096052;28;19939;-46
2021/12/26 08:57:38;;;;;;;;;;;-5.30;99.90;;;;;;5096008;28;19923;-46
2021/12/26 09:00:05;;;;;;;;;;;-5.20;99.90;;;;;;5095849;28;19970;-47
2021/12/26 09:02:30;;;;;;;;;;;-5.20;99.90;;;;;;5096141;28;19916;-47
2021/12/26 09:04:56;;;;;;;;;;;-5.10;99.90;;;;;;5095775;28;20686;-47
2021/12/26 09:07:21;;;;;;;;;;;-5.00;99.90;;;;;;5095905;28;19916;-47
2021/12/26 09:09:48;;;;;;;;;;;-5.00;99.90;;;;;;5095702;28;20034;-46
2021/12/26 09:12:14;;;;;;;;;;;-4.90;99.90;;;;;;5095384;28;20392;-46
2021/12/26 09:14:40;;;;;;;;;;;-4.90;99.90;;;;;;5095526;28;19916;-48
2021/12/26 09:17:06;;;;;;;;;;;-4.90;99.90;;;;;;5111627;28;20403;-45
2021/12/26 09:19:33;;;;;;;;;;;-4.90;99.90;;;;;;5111020;28;19916;-50
2021/12/26 09:22:02;;;;;;;;;;;-4.80;99.90;;;;;;5094938;28;19916;-50
2021/12/26 09:24:27;;;;;;;;;;;-4.80;99.90;;;;;;5094586;28;19920;-46
2021/12/26 09:26:53;;;;;;;;;;;-4.70;99.90;;;;;;5095520;28;19916;-46
2021/12/26 09:29:18;;;;;;;;;;;-4.70;99.90;;;;;;5095292;28;19927;-46
2021/12/26 09:31:45;;;;;;;;;;;-4.60;99.90;;;;;;5095130;28;19920;-46
2021/12/26 09:34:11;;;;;;;;;;;-4.60;99.90;;;;;;5095247;28;20297;-46
2021/12/26 09:36:37;;;;;;;;;;;-4.50;99.90;;;;;;5095353;28;19916;-46
2021/12/26 09:39:03;;;;;;;;;;;-4.40;99.90;;;;;;5094905;28;19920;-47
2021/12/26 09:41:29;;;;;;;;;;;-4.30;99.90;;;;;;5095229;28;19924;-47
2021/12/26 09:43:55;;;;;;;;;;;-4.20;99.90;;;;;;5095106;28;20292;-46
2021/12/26 09:46:20;;;;;;;;;;;-4.20;99.90;;;;;;5094730;28;19923;-47
2021/12/26 09:48:46;;;;;;;;;;;-4.10;99.90;;;;;;5094757;28;20274;-45
2021/12/26 09:51:12;;;;;;;;;;;-4.00;99.90;;;;;;5094987;28;19967;-47
2021/12/26 09:53:39;;;;;;;;;;;-3.90;99.90;;;;;;5095007;28;19916;-47
2021/12/26 09:56:06;;;;;;;;;;;-3.70;99.90;;;;;;5094734;28;19926;-50
2021/12/26 09:58:32;;;;;;;;;;;-3.50;99.90;;;;;;5094712;28;19923;-49
2021/12/26 10:00:57;;;;;;;;;;;-3.30;99.90;;;;;;5094878;28;20410;-47
2021/12/26 10:03:28;;;;;;;;;;;-3.30;99.90;;;;;;5094976;28;20031;-46
2021/12/26 10:05:54;;;;;;;;;;;-3.20;99.90;;;;;;5094812;28;19960;-47
2021/12/26 10:08:20;;;;;;;;;;;-3.10;99.90;;;;;;5094386;28;20354;-49
2021/12/26 10:11:05;;;;;;;;;;;-3.10;99.90;;;;;;5094887;28;19926;-47
2021/12/26 10:13:38;;;;;;;;;;;-3.00;99.90;;;;;;5094332;28;20276;-47
2021/12/26 10:16:04;;;;;;;;;;;-2.90;99.90;;;;;;5094659;28;19920;-46
2021/12/26 10:18:30;;;;;;;;;;;-2.70;99.90;;;;;;5094611;28;19923;-48
2021/12/26 10:20:55;;;;;;;;;;;-2.80;99.90;;;;;;5094452;28;19916;-50
2021/12/26 10:23:25;;;;;;;;;;;-2.70;99.90;;;;;;5094425;28;19973;-46
2021/12/26 10:25:50;;;;;;;;;;;-2.70;99.90;;;;;;5093978;28;20010;-52
2021/12/26 10:28:16;;;;;;;;;;;-2.70;99.90;;;;;;5094092;28;20293;-48
2021/12/26 10:30:42;;;;;;;;;;;-2.70;99.90;;;;;;5094519;28;19969;-46
2021/12/26 10:33:08;;;;;;;;;;;-2.60;99.90;;;;;;5094184;28;19916;-46
2021/12/26 10:35:33;;;;;;;;;;;-2.60;99.90;;;;;;5093868;28;20277;-46
2021/12/26 10:37:59;;;;;;;;;;;-2.60;99.90;;;;;;5093869;28;20293;-48
2021/12/26 10:40:26;;;;;;;;;;;-2.50;99.90;;;;;;5093940;28;19923;-48
2021/12/26 10:42:53;;;;;;;;;;;-2.40;99.90;;;;;;5094067;28;19916;-46
2021/12/26 10:45:20;;;;;;;;;;;-2.30;99.90;;;;;;5093940;28;19916;-47
2021/12/26 10:47:51;;;;;;;;;;;-2.30;99.90;;;;;;5093839;28;20006;-46
2021/12/26 10:50:19;;;;;;;;;;;-2.20;99.90;;;;;;5093766;28;19920;-48
2021/12/26 10:52:52;;;;;;;;;;;-2.10;99.90;;;;;;5093764;28;20035;-47
2021/12/26 10:55:26;;;;;;;;;;;-2.00;99.90;;;;;;5093270;28;20479;-47
2021/12/26 10:57:52;;;;;;;;;;;-1.80;99.90;;;;;;5093722;28;19961;-48
2021/12/26 11:00:19;;;;;;;;;;;-1.70;99.90;;;;;;5093734;28;20310;-47
2021/12/26 11:02:46;;;;;;;;;;;-1.60;99.90;;;;;;5093568;28;20292;-46
2021/12/26 11:05:12;;;;;;;;;;;-1.50;99.90;;;;;;5093422;28;19969;-47
2021/12/26 11:07:51;;;;;;;;;;;-1.40;99.90;;;;;;5093573;28;19916;-47
2021/12/26 11:10:33;;;;;;;;;;;-1.30;99.90;;;;;;5093411;28;20376;-48
2021/12/26 11:13:00;;;;;;;;;;;-1.20;99.90;;;;;;5093480;28;19967;-51
2021/12/26 11:15:28;;;;;;;;;;;-1.10;99.90;;;;;;5093224;28;19943;-46
2021/12/26 11:17:56;;;;;;;;;;;-1.10;99.90;;;;;;5093283;28;19919;-47
2021/12/26 11:20:26;;;;;;;;;;;-1.10;99.90;;;;;;5093110;28;19923;-47
2021/12/26 11:22:52;;;;;;;;;;;-1.00;99.90;;;;;;5093159;28;20385;-51
2021/12/26 11:25:18;;;;;;;;;;;-0.90;99.90;;;;;;5093008;28;20032;-46
2021/12/26 11:27:44;;;;;;;;;;;-0.90;99.90;;;;;;5093209;28;19920;-47
2021/12/26 11:30:10;;;;;;;;;;;-0.90;99.90;;;;;;5093132;28;19920;-49
2021/12/26 11:32:36;;;;;;;;;;;-0.80;99.90;;;;;;5092789;28;20404;-51
2021/12/26 11:35:02;;;;;;;;;;;-0.60;99.90;;;;;;5093098;28;19916;-49
2021/12/26 11:37:28;;;;;;;;;;;-0.80;99.90;;;;;;5093229;28;19915;-47
2021/12/26 11:39:54;;;;;;;;;;;-0.70;99.90;;;;;;5092971;28;20365;-46
2021/12/26 11:42:20;;;;;;;;;;;-0.60;99.90;;;;;;5092813;28;19923;-48
2021/12/26 11:45:07;;;;;;;;;;;-0.40;99.90;;;;;;5092698;28;19916;-49
2021/12/26 11:47:58;;;;;;;;;;;-0.30;99.90;;;;;;5092659;28;19916;-52
2021/12/26 11:50:42;;;;;;;;;;;-0.10;99.90;;;;;;5092689;28;19924;-49
2021/12/26 11:53:10;;;;;;;;;;;-0.10;99.90;;;;;;5092619;28;19916;-50
2021/12/26 11:55:49;;;;;;;;;;;0.00;99.90;;;;;;5092637;28;19920;-49
2021/12/26 11:58:23;;;;;;;;;;;0.00;99.90;;;;;;5092850;28;19920;-49
2021/12/26 12:00:51;;;;;;;;;;;0.10;99.90;;;;;;5092500;28;19967;-51
2021/12/26 12:03:19;;;;;;;;;;;0.20;99.90;;;;;;5092354;28;19969;-50
2021/12/26 12:05:44;;;;;;;;;;;0.10;99.90;;;;;;5092465;28;19927;-51
2021/12/26 12:08:17;;;;;;;;;;;0.10;99.90;;;;;;5092365;28;19915;-50
2021/12/26 12:10:43;;;;;;;;;;;0.00;99.90;;;;;;5107400;28;19920;-49
2021/12/26 12:13:12;;;;;;;;;;;-0.10;99.90;;;;;;5092571;28;20334;-48
2021/12/26 12:15:44;;;;;;;;;;;-0.10;99.90;;;;;;5092466;28;19931;-49
2021/12/26 12:18:14;;;;;;;;;;;-0.10;99.90;;;;;;5092680;28;19923;-48
2021/12/26 12:20:39;;;;;;;;;;;-0.30;99.90;;;;;;5092328;28;19968;-49
2021/12/26 12:23:08;;;;;;;;;;;-0.30;99.90;;;;;;5092465;28;20006;-49
2021/12/26 12:25:38;;;;;;;;;;;-0.40;99.90;;;;;;5092234;28;20274;-47
2021/12/26 12:28:13;;;;;;;;;;;-0.40;99.90;;;;;;5092460;28;20378;-47
2021/12/26 12:30:40;;;;;;;;;;;-0.50;99.90;;;;;;5092249;28;19965;-49
2021/12/26 12:33:12;;;;;;;;;;;-0.50;99.90;;;;;;5092222;28;19958;-50
2021/12/26 12:35:48;;;;;;;;;;;-0.50;99.90;;;;;;5091161;28;19941;-52
2021/12/26 12:38:21;;;;;;;;;;;-0.50;99.90;;;;;;5092286;28;19927;-49
2021/12/26 12:40:47;;;;;;;;;;;-0.50;99.90;;;;;;5092200;28;19938;-48
2021/12/26 12:43:17;;;;;;;;;;;-0.60;99.90;;;;;;5107954;28;19916;-47
2021/12/26 12:45:51;;;;;;;;;;;-0.60;99.90;;;;;;5092062;28;19927;-48
2021/12/26 12:48:20;;;;;;;;;;;-0.60;99.90;;;;;;5092202;28;19923;-53
2021/12/26 12:50:45;;;;;;;;;;;-0.60;99.90;;;;;;5092191;28;20002;-51
2021/12/26 12:53:31;;;;;;;;;;;-0.60;99.90;;;;;;5092100;28;20003;-50
2021/12/26 12:55:56;;;;;;;;;;;-0.60;99.90;;;;;;5092182;28;19916;-48
2021/12/26 12:58:31;;;;;;;;;;;-0.60;99.90;;;;;;5095327;28;19920;-49
2021/12/26 13:00:57;;;;;;;;;;;-0.70;99.90;;;;;;5095956;28;19916;-50
2021/12/26 13:03:22;;;;;;;;;;;-0.70;99.90;;;;;;5095744;28;20381;-48
2021/12/26 13:05:49;;;;;;;;;;;-0.60;99.90;;;;;;5095855;28;20365;-49
2021/12/26 13:08:21;;;;;;;;;;;-0.60;99.90;;;;;;5095944;28;19922;-51
2021/12/26 13:10:51;;;;;;;;;;;-0.60;99.90;;;;;;5095598;28;19947;-47
2021/12/26 13:13:17;;;;;;;;;;;-0.60;99.90;;;;;;5095725;28;20321;-47
2021/12/26 13:15:54;;;;;;;;;;;-0.60;99.90;;;;;;5095661;28;19915;-47
2021/12/26 13:18:20;;;;;;;;;;;-0.60;99.90;;;;;;5095545;28;20293;-47
2021/12/26 13:20:49;;;;;;;;;;;-0.60;99.90;;;;;;5096655;28;19919;-46
2021/12/26 13:23:15;;;;;;;;;;;-0.60;99.90;;;;;;5110364;28;20027;-46
2021/12/26 13:25:42;;;;;;;;;;;-0.60;99.90;;;;;;5113283;28;20006;-47
2021/12/26 13:28:15;;;;;;;;;;;-0.60;99.90;;;;;;5112002;28;20804;-47
2021/12/26 13:30:44;;;;;;;;;;;-0.60;99.90;;;;;;5112900;28;20012;-47
2021/12/26 13:33:14;;;;;;;;;;;-0.60;99.90;;;;;;5113812;28;19939;-46
2021/12/26 13:35:39;;;;;;;;;;;-0.50;99.90;;;;;;5114189;28;19923;-47
2021/12/26 13:38:08;;;;;;;;;;;-0.40;99.90;;;;;;5114218;28;19923;-47
2021/12/26 13:40:38;;;;;;;;;;;-0.30;99.90;;;;;;5114557;28;19923;-48
2021/12/26 13:43:04;;;;;;;;;;;-0.20;99.90;;;;;;5113854;28;19919;-47
2021/12/26 13:45:33;;;;;;;;;;;-0.20;99.90;;;;;;5113766;28;19919;-48
2021/12/26 13:47:58;;;;;;;;;;;-0.20;99.90;;;;;;5114343;28;20345;-48
2021/12/26 13:50:24;;;;;;;;;;;-0.20;99.90;;;;;;5112502;28;20067;-48
2021/12/26 13:52:59;;;;;;;;;;;-0.20;99.90;;;;;;5112404;28;20036;-48
2021/12/26 13:55:25;;;;;;;;;;;-0.20;99.90;;;;;;5113431;28;19967;-47
2021/12/26 13:58:00;;;;;;;;;;;-0.20;99.90;;;;;;5113458;28;19951;-47
2021/12/26 14:00:26;;;;;;;;;;;-0.20;99.90;;;;;;5113793;28;19963;-46
2021/12/26 14:02:52;;;;;;;;;;;-0.20;99.90;;;;;;5114105;28;20002;-48
2021/12/26 14:05:20;;;;;;;;;;;-0.20;99.90;;;;;;5110273;28;19916;-48
2021/12/26 14:07:51;;;;;;;;;;;-0.30;99.90;;;;;;5114119;28;19923;-48
2021/12/26 14:10:19;;;;;;;;;;;-0.30;99.90;;;;;;5109554;28;19919;-46
2021/12/26 14:12:49;;;;;;;;;;;-0.30;99.90;;;;;;5113835;28;19924;-48
2021/12/26 14:15:28;;;;;;;;;;;-0.40;99.90;;;;;;5112177;28;19972;-49
2021/12/26 14:18:07;;;;;;;;;;;-0.40;99.90;;;;;;5111145;28;20049;-47
2021/12/26 14:20:49;;;;;;;;;;;-0.40;99.90;;;;;;5113706;28;19916;-48